createdAt,value
2023-02-07T00:00:59.992Z,61.05
2023-02-07T00:02:03.258Z,60.84
2023-02-07T00:03:06.475Z,60.75
2023-02-07T00:04:09.490Z,60.76
2023-02-07T00:05:13.333Z,60.56
2023-02-07T00:06:19.774Z,60.44
2023-02-07T00:07:22.715Z,60.48
2023-02-07T00:08:25.764Z,60.22
2023-02-07T00:09:28.991Z,60.14
2023-02-07T00:10:32.640Z,59.90
2023-02-07T00:11:38.600Z,59.93
2023-02-07T00:12:41.999Z,59.85
2023-02-07T00:13:45.553Z,59.79
2023-02-07T00:14:48.524Z,59.87
2023-02-07T00:15:51.638Z,59.97
2023-02-07T00:16:54.830Z,59.98
2023-02-07T00:17:58.036Z,59.87
2023-02-07T00:19:01.181Z,59.74
2023-02-07T00:20:05.246Z,59.76
2023-02-07T00:21:11.712Z,59.74
2023-02-07T00:22:14.803Z,59.65
2023-02-07T00:23:17.860Z,59.50
2023-02-07T00:24:21.014Z,59.34
2023-02-07T00:25:24.186Z,59.36
2023-02-07T00:26:27.675Z,59.54
2023-02-07T00:27:30.763Z,59.60
2023-02-07T00:28:34.345Z,59.51
2023-02-07T00:29:38.131Z,59.64
2023-02-07T00:30:42.188Z,59.75
2023-02-07T00:31:45.368Z,59.89
2023-02-07T00:32:49.689Z,59.98
2023-02-07T00:33:56.011Z,59.75
2023-02-07T00:34:59.193Z,59.65
2023-02-07T00:36:05.002Z,59.53
2023-02-07T00:37:09.299Z,59.50
2023-02-07T00:38:12.371Z,59.50
2023-02-07T00:39:16.738Z,59.72
2023-02-07T00:40:19.884Z,59.88
2023-02-07T00:41:23.113Z,59.93
2023-02-07T00:42:26.270Z,59.87
2023-02-07T00:43:30.411Z,59.93
2023-02-07T00:44:33.416Z,59.76
2023-02-07T00:45:36.981Z,59.46
2023-02-07T00:46:40.357Z,59.38
2023-02-07T00:47:43.532Z,59.18
2023-02-07T00:48:46.614Z,59.09
2023-02-07T00:49:49.754Z,58.99
2023-02-07T00:50:52.835Z,58.89
2023-02-07T00:51:55.972Z,59.00
2023-02-07T00:52:59.027Z,59.05
2023-02-07T00:54:02.521Z,58.92
2023-02-07T00:55:05.996Z,58.90
2023-02-07T00:56:09.563Z,58.88
2023-02-07T00:57:12.731Z,58.90
2023-02-07T00:58:16.088Z,59.13
2023-02-07T00:59:19.266Z,59.21
2023-02-07T01:00:22.413Z,59.14
2023-02-07T01:01:27.033Z,59.17
2023-02-07T01:02:31.163Z,59.02
2023-02-07T01:03:34.276Z,58.93
2023-02-07T01:04:37.480Z,59.02
2023-02-07T01:05:41.047Z,59.02
2023-02-07T01:06:44.199Z,59.16
2023-02-07T01:07:47.357Z,59.06
2023-02-07T01:08:50.510Z,59.01
2023-02-07T01:09:53.674Z,59.00
2023-02-07T01:10:57.028Z,58.85
2023-02-07T01:12:00.206Z,58.87
2023-02-07T01:13:03.156Z,58.96
2023-02-07T01:14:07.309Z,58.84
2023-02-07T01:15:10.520Z,58.84
2023-02-07T01:16:26.534Z,59.01
2023-02-07T01:17:29.719Z,58.75
2023-02-07T01:18:32.756Z,58.67
2023-02-07T01:19:35.779Z,58.51
2023-02-07T01:20:39.063Z,58.54
2023-02-07T01:21:42.130Z,58.42
2023-02-07T01:22:45.434Z,58.62
2023-02-07T01:23:48.590Z,58.71
2023-02-07T01:24:54.468Z,58.68
2023-02-07T01:25:57.631Z,58.75
2023-02-07T01:27:01.526Z,58.62
2023-02-07T01:28:04.844Z,58.51
2023-02-07T01:29:08.381Z,58.48
2023-02-07T01:30:12.854Z,58.51
2023-02-07T01:31:16.193Z,58.34
2023-02-07T01:32:19.235Z,58.20
2023-02-07T01:33:22.799Z,58.23
2023-02-07T01:34:25.998Z,58.22
2023-02-07T01:35:29.080Z,58.28
2023-02-07T01:36:32.264Z,58.35
2023-02-07T01:37:35.541Z,58.32
2023-02-07T01:38:38.688Z,58.33
2023-02-07T01:39:42.350Z,58.40
2023-02-07T01:40:45.436Z,58.39
2023-02-07T01:41:48.595Z,58.48
2023-02-07T01:42:51.749Z,58.38
2023-02-07T01:43:58.476Z,58.43
2023-02-07T01:45:05.124Z,58.45
2023-02-07T01:46:08.729Z,58.25
2023-02-07T01:47:15.198Z,58.13
2023-02-07T01:48:28.486Z,58.12
2023-02-07T01:49:35.228Z,58.16
2023-02-07T01:50:40.700Z,58.08
2023-02-07T01:51:50.241Z,58.11
2023-02-07T01:52:54.136Z,58.06
2023-02-07T01:54:00.745Z,58.09
2023-02-07T01:55:08.132Z,57.98
2023-02-07T01:56:29.425Z,57.76
2023-02-07T01:57:22.409Z,57.71
2023-02-07T01:58:27.492Z,57.71
2023-02-07T01:59:33.730Z,57.78
2023-02-07T02:00:37.325Z,57.65
2023-02-07T02:01:41.650Z,57.56
2023-02-07T02:02:44.922Z,57.64
2023-02-07T02:03:51.961Z,57.74
2023-02-07T02:04:55.374Z,57.68
2023-02-07T02:05:58.743Z,57.64
2023-02-07T02:07:02.101Z,57.61
2023-02-07T02:08:24.505Z,57.66
2023-02-07T02:09:28.993Z,57.61
2023-02-07T02:10:44.637Z,57.74
2023-02-07T02:12:03.367Z,57.66
2023-02-07T02:13:27.743Z,57.48
2023-02-07T02:14:54.129Z,57.37
2023-02-07T02:16:03.877Z,57.47
2023-02-07T02:17:22.414Z,57.51
2023-02-07T02:19:02.210Z,57.52
2023-02-07T02:20:29.692Z,57.48
2023-02-07T02:21:54.363Z,57.65
2023-02-07T02:23:22.210Z,57.54
2023-02-07T02:24:40.590Z,57.68
2023-02-07T02:25:57.216Z,57.72
2023-02-07T02:27:20.324Z,57.79
2023-02-07T02:28:27.047Z,57.91
2023-02-07T02:30:05.330Z,58.02
2023-02-07T02:31:28.576Z,57.96
2023-02-07T02:32:56.390Z,57.81
2023-02-07T02:34:15.400Z,58.04
2023-02-07T02:35:23.937Z,58.17
2023-02-07T02:36:33.290Z,58.37
2023-02-07T02:37:58.676Z,58.43
2023-02-07T02:39:11.288Z,58.45
2023-02-07T02:40:53.277Z,58.29
2023-02-07T02:42:24.970Z,58.19
2023-02-07T02:43:37.429Z,58.29
2023-02-07T02:45:02.699Z,58.22
2023-02-07T02:46:15.283Z,58.28
2023-02-07T02:47:20.559Z,58.31
2023-02-07T02:48:24.436Z,58.40
2023-02-07T02:49:30.000Z,58.40
2023-02-07T02:50:34.882Z,58.23
2023-02-07T02:51:38.049Z,58.32
2023-02-07T02:52:50.745Z,58.21
2023-02-07T02:53:56.973Z,58.20
2023-02-07T02:55:01.954Z,58.20
2023-02-07T02:56:14.168Z,58.06
2023-02-07T02:57:38.977Z,58.04
2023-02-07T02:59:02.288Z,57.68
2023-02-07T03:00:26.817Z,57.61
2023-02-07T03:01:52.752Z,57.58
2023-02-07T03:03:14.799Z,57.36
2023-02-07T03:04:30.802Z,57.13
2023-02-07T03:05:43.351Z,57.10
2023-02-07T03:07:01.842Z,57.16
2023-02-07T03:08:08.773Z,57.31
2023-02-07T03:09:39.513Z,57.14
2023-02-07T03:11:01.484Z,57.26
2023-02-07T03:12:17.110Z,57.32
2023-02-07T03:13:29.600Z,57.40
2023-02-07T03:14:45.518Z,57.25
2023-02-07T03:16:20.889Z,57.30
2023-02-07T03:17:30.585Z,57.36
2023-02-07T03:18:49.153Z,57.52
2023-02-07T03:20:07.694Z,57.56
2023-02-07T03:21:23.471Z,57.53
2023-02-07T03:22:29.747Z,57.65
2023-02-07T03:23:33.938Z,57.67
2023-02-07T03:24:40.575Z,57.72
2023-02-07T03:25:44.897Z,57.72
2023-02-07T03:26:49.974Z,57.76
2023-02-07T03:27:55.704Z,57.81
2023-02-07T03:29:00.371Z,57.96
2023-02-07T03:30:07.195Z,58.00
2023-02-07T03:31:13.813Z,57.85
2023-02-07T03:32:19.661Z,57.87
2023-02-07T03:33:25.346Z,57.74
2023-02-07T03:34:37.721Z,57.54
2023-02-07T03:35:44.455Z,57.40
2023-02-07T03:36:57.178Z,57.34
2023-02-07T03:38:02.667Z,57.55
2023-02-07T03:39:06.020Z,57.56
2023-02-07T03:40:11.007Z,57.65
2023-02-07T03:41:20.329Z,57.62
2023-02-07T03:42:32.734Z,57.65
2023-02-07T03:43:38.683Z,57.56
2023-02-07T03:44:42.677Z,57.71
2023-02-07T03:45:45.750Z,57.90
2023-02-07T03:46:50.460Z,57.79
2023-02-07T03:47:53.510Z,57.79
2023-02-07T03:48:56.587Z,57.91
2023-02-07T03:49:59.666Z,57.91
2023-02-07T03:51:02.817Z,57.75
2023-02-07T03:52:06.042Z,57.89
2023-02-07T03:53:09.223Z,57.87
2023-02-07T03:54:12.641Z,57.81
2023-02-07T03:55:15.842Z,57.94
2023-02-07T03:56:19.554Z,58.07
2023-02-07T03:57:22.624Z,58.07
2023-02-07T03:58:25.779Z,58.15
2023-02-07T03:59:29.237Z,58.15
2023-02-07T04:00:32.626Z,58.05
2023-02-07T04:02:47.766Z,58.18
2023-02-07T04:03:50.919Z,58.13
2023-02-07T04:04:54.204Z,58.08
2023-02-07T04:05:57.155Z,57.99
2023-02-07T04:07:00.207Z,58.05
2023-02-07T04:08:03.647Z,58.04
2023-02-07T04:09:07.120Z,58.07
2023-02-07T04:10:11.584Z,58.10
2023-02-07T04:11:14.831Z,57.93
2023-02-07T04:12:17.912Z,57.95
2023-02-07T04:13:20.997Z,57.76
2023-02-07T04:14:24.245Z,57.82
2023-02-07T04:15:27.325Z,57.75
2023-02-07T04:16:30.335Z,57.81
2023-02-07T04:17:33.454Z,57.61
2023-02-07T04:18:36.406Z,57.42
2023-02-07T04:19:39.446Z,57.46
2023-02-07T04:20:42.523Z,57.34
2023-02-07T04:21:45.610Z,57.30
2023-02-07T04:22:48.774Z,57.28
2023-02-07T04:23:51.823Z,57.27
2023-02-07T04:24:54.882Z,57.21
2023-02-07T04:25:58.163Z,56.97
2023-02-07T04:27:01.313Z,56.97
2023-02-07T04:28:04.408Z,57.02
2023-02-07T04:29:07.413Z,56.91
2023-02-07T04:30:11.580Z,56.75
2023-02-07T04:31:14.540Z,56.80
2023-02-07T04:32:17.706Z,56.83
2023-02-07T04:33:21.021Z,56.75
2023-02-07T04:34:24.121Z,56.62
2023-02-07T04:35:27.196Z,56.65
2023-02-07T04:36:30.763Z,56.60
2023-02-07T04:37:33.828Z,56.54
2023-02-07T04:38:36.867Z,56.72
2023-02-07T04:39:39.830Z,56.88
2023-02-07T04:40:42.785Z,56.99
2023-02-07T04:41:45.938Z,57.06
2023-02-07T04:42:48.991Z,56.93
2023-02-07T04:43:52.251Z,56.81
2023-02-07T04:44:55.335Z,56.83
2023-02-07T04:45:58.449Z,57.00
2023-02-07T04:47:01.491Z,56.93
2023-02-07T04:48:04.920Z,56.94
2023-02-07T04:49:08.008Z,56.97
2023-02-07T04:50:11.814Z,56.96
2023-02-07T04:51:15.606Z,57.07
2023-02-07T04:52:18.597Z,57.07
2023-02-07T04:53:21.857Z,57.31
2023-02-07T04:54:24.942Z,57.24
2023-02-07T04:55:28.027Z,57.11
2023-02-07T04:56:31.094Z,56.97
2023-02-07T04:57:34.241Z,57.04
2023-02-07T04:58:37.210Z,57.25
2023-02-07T04:59:40.383Z,57.26
2023-02-07T05:00:43.445Z,57.24
2023-02-07T05:01:46.649Z,57.25
2023-02-07T05:02:49.735Z,57.31
2023-02-07T05:03:52.796Z,57.31
2023-02-07T05:04:55.874Z,57.17
2023-02-07T05:05:58.923Z,57.19
2023-02-07T05:07:01.888Z,57.18
2023-02-07T05:08:05.170Z,57.24
2023-02-07T05:09:08.248Z,57.07
2023-02-07T05:10:12.028Z,56.66
2023-02-07T05:11:15.078Z,56.56
2023-02-07T05:12:18.179Z,56.66
2023-02-07T05:13:21.430Z,56.73
2023-02-07T05:14:24.564Z,56.84
2023-02-07T05:15:28.023Z,56.88
2023-02-07T05:16:31.210Z,56.57
2023-02-07T05:17:34.466Z,56.43
2023-02-07T05:18:37.561Z,56.42
2023-02-07T05:19:40.635Z,56.50
2023-02-07T05:20:44.123Z,56.61
2023-02-07T05:21:47.193Z,56.47
2023-02-07T05:22:50.383Z,56.48
2023-02-07T05:23:53.525Z,56.62
2023-02-07T05:24:56.596Z,56.61
2023-02-07T05:25:59.558Z,56.67
2023-02-07T05:27:02.773Z,56.58
2023-02-07T05:28:05.878Z,56.35
2023-02-07T05:29:09.026Z,56.33
2023-02-07T05:30:13.119Z,56.46
2023-02-07T05:31:16.515Z,56.36
2023-02-07T05:32:38.965Z,56.27
2023-02-07T05:33:42.112Z,56.42
2023-02-07T05:34:45.178Z,56.37
2023-02-07T05:35:48.222Z,56.46
2023-02-07T05:36:51.355Z,56.59
2023-02-07T05:37:54.397Z,56.66
2023-02-07T05:38:57.436Z,56.77
2023-02-07T05:40:00.397Z,56.98
2023-02-07T05:41:03.457Z,57.00
2023-02-07T05:42:06.419Z,56.90
2023-02-07T05:43:10.694Z,56.90
2023-02-07T05:44:13.850Z,56.84
2023-02-07T05:45:16.911Z,56.68
2023-02-07T05:46:20.155Z,56.74
2023-02-07T05:47:23.252Z,56.73
2023-02-07T05:48:26.312Z,56.75
2023-02-07T05:49:29.364Z,56.81
2023-02-07T05:50:32.394Z,56.90
2023-02-07T05:51:41.624Z,56.93
2023-02-07T05:52:45.084Z,56.90
2023-02-07T05:53:48.222Z,56.78
2023-02-07T05:54:51.413Z,56.71
2023-02-07T05:55:54.459Z,56.58
2023-02-07T05:56:57.515Z,56.58
2023-02-07T05:58:00.705Z,56.62
2023-02-07T05:59:03.778Z,56.79
2023-02-07T06:00:09.146Z,56.68
2023-02-07T06:01:14.611Z,56.60
2023-02-07T06:02:17.758Z,56.14
2023-02-07T06:03:20.888Z,56.14
2023-02-07T06:04:23.934Z,56.35
2023-02-07T06:05:28.657Z,56.26
2023-02-07T06:06:31.649Z,56.32
2023-02-07T06:07:34.804Z,56.33
2023-02-07T06:08:37.847Z,56.41
2023-02-07T06:09:41.036Z,56.66
2023-02-07T06:10:44.213Z,56.99
2023-02-07T06:11:47.174Z,57.06
2023-02-07T06:12:50.239Z,57.25
2023-02-07T06:13:53.287Z,57.25
2023-02-07T06:14:56.248Z,57.34
2023-02-07T06:15:59.241Z,57.52
2023-02-07T06:17:02.343Z,57.57
2023-02-07T06:18:05.605Z,57.56
2023-02-07T06:19:10.662Z,57.58
2023-02-07T06:20:14.862Z,57.39
2023-02-07T06:21:18.028Z,57.32
2023-02-07T06:22:21.205Z,57.42
2023-02-07T06:23:24.165Z,57.28
2023-02-07T06:24:27.448Z,57.41
2023-02-07T06:25:30.668Z,57.34
2023-02-07T06:26:33.936Z,57.32
2023-02-07T06:27:38.390Z,57.26
2023-02-07T06:28:41.388Z,57.31
2023-02-07T06:29:44.475Z,57.31
2023-02-07T06:30:47.747Z,57.48
2023-02-07T06:31:50.867Z,57.59
2023-02-07T06:32:53.934Z,57.52
2023-02-07T06:33:57.009Z,57.51
2023-02-07T06:35:00.101Z,57.37
2023-02-07T06:36:03.484Z,57.62
2023-02-07T06:37:06.571Z,57.80
2023-02-07T06:38:09.640Z,57.74
2023-02-07T06:39:13.025Z,57.76
2023-02-07T06:40:17.026Z,57.51
2023-02-07T06:41:20.321Z,57.49
2023-02-07T06:42:23.381Z,57.48
2023-02-07T06:43:26.545Z,57.44
2023-02-07T06:44:29.644Z,57.39
2023-02-07T06:45:32.768Z,57.55
2023-02-07T06:46:35.952Z,57.55
2023-02-07T06:47:39.266Z,57.59
2023-02-07T06:48:42.450Z,57.62
2023-02-07T06:49:45.622Z,57.93
2023-02-07T06:50:51.424Z,58.06
2023-02-07T06:51:54.788Z,58.01
2023-02-07T06:53:01.434Z,57.92
2023-02-07T06:54:06.422Z,58.01
2023-02-07T06:55:09.631Z,57.81
2023-02-07T06:56:12.995Z,57.83
2023-02-07T06:57:16.188Z,57.82
2023-02-07T06:58:19.337Z,57.69
2023-02-07T06:59:22.515Z,57.68
2023-02-07T07:00:25.743Z,57.49
2023-02-07T07:01:28.951Z,57.29
2023-02-07T07:02:32.144Z,57.23
2023-02-07T07:03:35.276Z,57.22
2023-02-07T07:04:38.235Z,57.08
2023-02-07T07:05:41.871Z,57.31
2023-02-07T07:06:44.738Z,57.61
2023-02-07T07:07:48.703Z,57.89
2023-02-07T07:08:51.911Z,58.09
2023-02-07T07:09:54.951Z,58.31
2023-02-07T07:10:58.013Z,58.51
2023-02-07T07:12:00.999Z,58.56
2023-02-07T07:13:04.184Z,58.55
2023-02-07T07:14:07.238Z,58.51
2023-02-07T07:15:10.312Z,58.27
2023-02-07T07:16:13.730Z,58.04
2023-02-07T07:17:16.756Z,57.96
2023-02-07T07:18:19.939Z,57.47
2023-02-07T07:19:23.011Z,57.28
2023-02-07T07:20:26.054Z,57.00
2023-02-07T07:21:29.023Z,57.00
2023-02-07T07:22:32.120Z,56.93
2023-02-07T07:23:35.478Z,56.97
2023-02-07T07:24:38.572Z,57.10
2023-02-07T07:25:41.654Z,57.37
2023-02-07T07:26:49.872Z,57.37
2023-02-07T07:27:49.878Z,57.41
2023-02-07T07:28:54.721Z,57.50
2023-02-07T07:29:57.799Z,57.66
2023-02-07T07:31:06.537Z,57.55
2023-02-07T07:32:19.910Z,57.68
2023-02-07T07:33:17.555Z,57.72
2023-02-07T07:34:20.585Z,57.88
2023-02-07T07:35:24.558Z,58.01
2023-02-07T07:36:27.949Z,57.98
2023-02-07T07:37:31.444Z,57.92
2023-02-07T07:38:34.901Z,58.16
2023-02-07T07:39:38.063Z,58.11
2023-02-07T07:40:41.430Z,58.28
2023-02-07T07:41:44.862Z,58.44
2023-02-07T07:42:48.508Z,58.65
2023-02-07T07:43:54.572Z,58.75
2023-02-07T07:44:57.768Z,58.90
2023-02-07T07:46:01.758Z,59.13
2023-02-07T07:47:04.987Z,59.06
2023-02-07T07:48:08.278Z,59.15
2023-02-07T07:49:11.559Z,59.07
2023-02-07T07:50:14.962Z,59.31
2023-02-07T07:51:18.226Z,59.35
2023-02-07T07:52:21.397Z,59.18
2023-02-07T07:53:24.706Z,59.02
2023-02-07T07:54:27.730Z,58.79
2023-02-07T07:55:30.840Z,58.80
2023-02-07T07:56:34.919Z,58.63
2023-02-07T07:57:38.173Z,58.41
2023-02-07T07:58:41.245Z,58.22
2023-02-07T07:59:44.422Z,58.26
2023-02-07T08:00:47.748Z,58.19
2023-02-07T08:01:51.501Z,58.26
2023-02-07T08:02:54.579Z,58.50
2023-02-07T08:03:57.893Z,59.03
2023-02-07T08:05:01.538Z,59.73
2023-02-07T08:06:05.627Z,60.38
2023-02-07T08:07:08.804Z,60.84
2023-02-07T08:08:12.093Z,60.96
2023-02-07T08:09:15.199Z,61.22
2023-02-07T08:10:18.407Z,61.48
2023-02-07T08:11:21.497Z,61.60
2023-02-07T08:12:24.715Z,62.08
2023-02-07T08:13:32.329Z,61.98
2023-02-07T08:14:33.144Z,61.94
2023-02-07T08:15:36.499Z,61.77
2023-02-07T08:16:39.659Z,61.35
2023-02-07T08:17:42.730Z,68.34
2023-02-07T08:18:46.789Z,71.22
2023-02-07T08:19:50.022Z,72.60
2023-02-07T08:20:53.093Z,73.44
2023-02-07T08:21:56.189Z,73.99
2023-02-07T08:22:59.354Z,74.37
2023-02-07T08:24:02.652Z,74.73
2023-02-07T08:25:06.691Z,74.97
2023-02-07T08:26:11.097Z,75.15
2023-02-07T08:27:14.266Z,74.98
2023-02-07T08:28:18.694Z,74.80
2023-02-07T08:29:21.937Z,74.78
2023-02-07T08:30:25.403Z,74.58
2023-02-07T08:31:28.636Z,74.41
2023-02-07T08:32:31.964Z,74.67
2023-02-07T08:33:35.040Z,74.91
2023-02-07T08:34:38.232Z,75.01
2023-02-07T08:35:41.495Z,75.19
2023-02-07T08:36:44.805Z,75.40
2023-02-07T08:37:47.876Z,75.35
2023-02-07T08:38:51.475Z,75.21
2023-02-07T08:39:55.303Z,74.90
2023-02-07T08:40:58.557Z,74.80
2023-02-07T08:42:02.753Z,74.72
2023-02-07T08:43:07.631Z,74.30
2023-02-07T08:44:10.701Z,74.04
2023-02-07T08:45:15.487Z,74.01
2023-02-07T08:46:18.950Z,74.13
2023-02-07T08:47:22.103Z,74.11
2023-02-07T08:48:25.136Z,73.75
2023-02-07T08:49:28.439Z,73.50
2023-02-07T08:50:31.745Z,72.93
2023-02-07T08:51:34.987Z,72.63
2023-02-07T08:52:38.322Z,72.35
2023-02-07T08:53:41.414Z,72.20
2023-02-07T08:54:44.497Z,71.61
2023-02-07T08:55:47.881Z,71.59
2023-02-07T08:56:51.448Z,71.36
2023-02-07T08:57:54.661Z,71.23
2023-02-07T08:58:57.912Z,70.91
2023-02-07T09:00:01.448Z,70.91
2023-02-07T09:01:06.615Z,70.18
2023-02-07T09:02:11.962Z,70.35
2023-02-07T09:03:15.334Z,70.42
2023-02-07T09:04:18.411Z,70.58
2023-02-07T09:05:21.604Z,70.51
2023-02-07T09:06:25.614Z,70.14
2023-02-07T09:07:28.686Z,70.04
2023-02-07T09:08:31.639Z,69.83
2023-02-07T09:09:34.790Z,69.94
2023-02-07T09:10:38.706Z,69.64
2023-02-07T09:11:42.218Z,69.44
2023-02-07T09:12:45.403Z,69.45
2023-02-07T09:13:48.814Z,69.33
2023-02-07T09:14:52.050Z,69.23
2023-02-07T09:15:58.248Z,69.16
2023-02-07T09:17:01.470Z,69.45
2023-02-07T09:18:04.626Z,69.26
2023-02-07T09:19:08.031Z,69.08
2023-02-07T09:20:12.306Z,69.04
2023-02-07T09:21:15.789Z,69.04
2023-02-07T09:22:18.821Z,68.87
2023-02-07T09:23:23.417Z,68.35
2023-02-07T09:24:26.822Z,68.13
2023-02-07T09:25:30.008Z,68.12
2023-02-07T09:26:34.761Z,67.61
2023-02-07T09:27:37.891Z,67.62
2023-02-07T09:28:41.052Z,67.32
2023-02-07T09:29:44.222Z,66.94
2023-02-07T09:30:48.401Z,66.62
2023-02-07T09:31:51.928Z,66.41
2023-02-07T09:32:57.686Z,66.05
2023-02-07T09:34:02.125Z,65.70
2023-02-07T09:35:07.061Z,65.57
2023-02-07T09:36:25.196Z,65.43
2023-02-07T09:37:28.787Z,65.20
2023-02-07T09:38:32.903Z,64.72
2023-02-07T09:39:38.426Z,64.57
2023-02-07T09:40:43.151Z,64.28
2023-02-07T09:42:21.616Z,63.97
2023-02-07T09:43:29.491Z,63.84
2023-02-07T09:44:57.886Z,63.27
2023-02-07T09:46:05.453Z,62.88
2023-02-07T09:47:23.046Z,62.82
2023-02-07T09:48:32.644Z,62.79
2023-02-07T09:49:39.489Z,62.43
2023-02-07T09:50:46.235Z,62.36
2023-02-07T09:51:50.611Z,62.17
2023-02-07T09:52:57.151Z,61.50
2023-02-07T09:54:03.835Z,61.25
2023-02-07T09:55:22.906Z,60.96
2023-02-07T09:56:28.646Z,60.75
2023-02-07T09:57:41.525Z,60.56
2023-02-07T09:58:55.224Z,60.65
2023-02-07T10:00:04.948Z,60.62
2023-02-07T10:01:23.522Z,60.60
2023-02-07T10:02:36.178Z,60.45
2023-02-07T10:03:45.872Z,60.39
2023-02-07T10:04:51.469Z,60.17
2023-02-07T10:06:17.888Z,60.17
2023-02-07T10:07:12.761Z,60.16
2023-02-07T10:08:18.462Z,60.07
2023-02-07T10:09:40.386Z,59.98
2023-02-07T10:10:46.944Z,59.70
2023-02-07T10:12:02.565Z,59.37
2023-02-07T10:13:26.164Z,59.25
2023-02-07T10:14:56.890Z,59.12
2023-02-07T10:16:01.591Z,59.05
2023-02-07T10:17:16.475Z,59.06
2023-02-07T10:18:29.714Z,59.09
2023-02-07T10:19:42.628Z,58.89
2023-02-07T10:20:55.577Z,58.87
2023-02-07T10:22:11.028Z,58.83
2023-02-07T10:23:29.841Z,58.70
2023-02-07T10:24:58.144Z,58.48
2023-02-07T10:31:05.025Z,58.49
2023-02-07T10:32:17.533Z,59.31
2023-02-07T10:33:24.313Z,59.75
2023-02-07T10:34:39.843Z,60.03
2023-02-07T10:35:45.681Z,60.00
2023-02-07T10:36:51.824Z,59.95
2023-02-07T10:37:58.422Z,59.55
2023-02-07T10:39:09.447Z,59.40
2023-02-07T10:40:13.973Z,59.45
2023-02-07T10:41:23.702Z,59.56
2023-02-07T10:42:28.758Z,59.37
2023-02-07T10:43:34.088Z,59.39
2023-02-07T10:44:37.100Z,58.91
2023-02-07T10:45:41.995Z,58.29
2023-02-07T10:48:48.517Z,58.21
2023-02-07T10:49:55.377Z,58.02
2023-02-07T10:51:02.270Z,58.02
2023-02-07T10:52:14.984Z,58.47
2023-02-07T10:53:49.094Z,58.18
2023-02-07T10:54:55.816Z,58.12
2023-02-07T10:55:59.011Z,57.38
2023-02-07T10:57:03.051Z,57.54
2023-02-07T10:58:21.252Z,57.53
2023-02-07T10:59:30.558Z,57.50
2023-02-07T11:00:34.334Z,57.51
2023-02-07T11:01:39.356Z,57.65
2023-02-07T11:02:54.340Z,57.58
2023-02-07T11:03:58.393Z,57.58
2023-02-07T11:05:16.969Z,57.16
2023-02-07T14:01:33.057Z,59.02
2023-02-07T14:02:45.198Z,58.82
2023-02-07T14:05:32.769Z,58.67
2023-02-07T14:06:42.003Z,58.56
2023-02-07T14:07:54.920Z,58.46
2023-02-07T14:09:01.637Z,58.54
2023-02-07T14:10:06.187Z,58.30
2023-02-07T14:11:21.735Z,58.38
2023-02-07T14:12:40.240Z,58.39
2023-02-07T14:13:43.610Z,58.30
2023-02-07T14:15:00.622Z,58.40
2023-02-07T14:16:01.569Z,58.30
2023-02-07T14:17:07.474Z,58.16
2023-02-07T14:18:40.174Z,58.08
2023-02-07T14:19:48.168Z,57.96
2023-02-07T14:21:00.807Z,57.96
2023-02-07T14:22:31.721Z,57.98
2023-02-07T14:23:48.589Z,58.09
2023-02-07T14:25:07.152Z,57.95
2023-02-07T14:26:39.909Z,57.87
2023-02-07T14:27:52.637Z,57.97
2023-02-07T14:30:16.637Z,57.94
2023-02-07T14:31:23.259Z,57.81
2023-02-07T14:32:41.640Z,57.84
2023-02-07T14:33:48.265Z,57.80
2023-02-07T14:35:03.836Z,57.67
2023-02-07T14:36:16.814Z,57.67
2023-02-07T14:37:23.347Z,57.71
2023-02-07T14:38:39.241Z,57.82
2023-02-07T14:39:42.311Z,58.16
2023-02-07T14:40:54.414Z,58.38
2023-02-07T14:42:03.007Z,58.57
2023-02-07T14:43:09.527Z,58.77
2023-02-07T14:44:28.291Z,58.79
2023-02-07T14:45:34.682Z,58.87
2023-02-07T14:46:50.691Z,59.02
2023-02-07T14:47:53.750Z,58.98
2023-02-07T14:49:25.540Z,59.13
2023-02-07T14:50:30.092Z,59.29
2023-02-07T14:51:54.919Z,59.08
2023-02-07T14:53:00.000Z,59.28
2023-02-07T14:54:09.440Z,59.18
2023-02-07T14:55:21.900Z,59.26
2023-02-07T14:56:44.194Z,59.32
2023-02-07T14:58:02.767Z,59.29
2023-02-07T14:59:08.202Z,59.36
2023-02-07T15:00:15.892Z,59.45
2023-02-07T15:01:20.861Z,59.47
2023-02-07T15:02:42.446Z,59.48
2023-02-07T15:03:45.646Z,59.49
2023-02-07T15:04:48.788Z,59.34
2023-02-07T15:05:55.273Z,59.35
2023-02-07T15:06:59.400Z,59.44
2023-02-07T15:08:18.359Z,59.50
2023-02-07T15:09:27.432Z,59.51
2023-02-07T15:10:33.861Z,59.34
2023-02-07T15:11:36.997Z,59.36
2023-02-07T15:12:43.118Z,59.49
2023-02-07T15:13:49.163Z,59.36
2023-02-07T15:14:56.455Z,59.27
2023-02-07T15:16:18.247Z,59.33
2023-02-07T15:17:24.597Z,59.29
2023-02-07T15:18:31.524Z,59.39
2023-02-07T15:19:37.478Z,59.41
2023-02-07T15:20:41.259Z,59.35
2023-02-07T15:21:49.087Z,59.34
2023-02-07T15:22:55.047Z,59.30
2023-02-07T15:24:04.755Z,59.06
2023-02-07T15:25:11.481Z,59.12
2023-02-07T15:26:18.400Z,59.04
2023-02-07T15:27:27.660Z,58.92
2023-02-07T15:28:31.873Z,59.07
2023-02-07T15:29:37.485Z,58.98
2023-02-07T15:30:41.243Z,58.95
2023-02-07T15:31:44.812Z,58.95
2023-02-07T15:32:48.202Z,58.86
2023-02-07T15:33:54.850Z,58.80
2023-02-07T15:35:00.545Z,58.77
2023-02-07T15:36:09.185Z,58.71
2023-02-07T15:37:22.589Z,58.66
2023-02-07T15:38:27.490Z,58.44
2023-02-07T15:39:30.700Z,58.47
2023-02-07T15:40:33.928Z,58.34
2023-02-07T15:41:37.113Z,58.27
2023-02-07T15:42:57.835Z,58.18
2023-02-07T15:44:04.372Z,58.24
2023-02-07T15:45:19.550Z,57.99
2023-02-07T15:46:15.355Z,57.91
2023-02-07T15:47:35.639Z,57.82
2023-02-07T15:48:48.209Z,57.80
2023-02-07T15:50:00.935Z,57.74
2023-02-07T15:51:05.552Z,57.68
2023-02-07T15:52:18.201Z,57.74
2023-02-07T15:53:24.750Z,57.74
2023-02-07T15:54:28.655Z,57.64
2023-02-07T15:55:44.012Z,57.76
2023-02-07T15:56:50.665Z,57.72
2023-02-07T15:57:54.002Z,57.69
2023-02-07T15:59:02.516Z,57.55
2023-02-07T16:00:24.432Z,57.51
2023-02-07T16:01:29.637Z,57.62
2023-02-07T16:02:35.682Z,57.57
2023-02-07T16:03:46.984Z,57.71
2023-02-07T16:04:50.308Z,57.54
2023-02-07T16:06:03.463Z,57.60
2023-02-07T16:07:10.228Z,57.55
2023-02-07T16:08:34.861Z,57.64
2023-02-07T16:09:41.499Z,57.54
2023-02-07T16:10:44.755Z,57.74
2023-02-07T16:11:47.799Z,57.59
2023-02-07T16:13:02.862Z,57.50
2023-02-07T16:14:24.969Z,57.50
2023-02-07T16:15:31.730Z,57.50
2023-02-07T16:16:40.570Z,57.53
2023-02-07T16:17:43.885Z,57.42
2023-02-07T16:18:50.386Z,57.52
2023-02-07T16:19:53.569Z,57.55
2023-02-07T16:20:56.831Z,57.56
2023-02-07T16:22:07.350Z,57.52
2023-02-07T16:23:13.187Z,57.42
2023-02-07T16:24:19.794Z,57.51
2023-02-07T16:25:29.359Z,57.54
2023-02-07T16:26:32.595Z,57.49
2023-02-07T16:27:38.626Z,57.50
2023-02-07T16:28:42.457Z,57.49
2023-02-07T16:29:46.341Z,57.60
2023-02-07T16:30:50.187Z,57.51
2023-02-07T16:31:54.971Z,57.46
2023-02-07T16:32:58.134Z,57.47
2023-02-07T16:34:01.134Z,57.37
2023-02-07T16:35:07.982Z,57.43
2023-02-07T16:36:16.997Z,57.31
2023-02-07T16:37:20.102Z,57.38
2023-02-07T16:38:23.033Z,57.32
2023-02-07T16:39:26.340Z,57.22
2023-02-07T16:40:29.681Z,57.20
2023-02-07T16:41:35.811Z,57.18
2023-02-07T16:42:39.372Z,57.08
2023-02-07T16:43:42.414Z,57.14
2023-02-07T16:44:46.424Z,57.14
2023-02-07T16:45:49.704Z,57.16
2023-02-07T16:46:52.861Z,57.34
2023-02-07T16:47:58.565Z,57.41
2023-02-07T16:49:02.172Z,57.34
2023-02-07T16:50:08.941Z,57.30
2023-02-07T16:51:12.214Z,57.20
2023-02-07T16:52:15.462Z,57.17
2023-02-07T16:53:18.697Z,57.30
2023-02-07T16:54:22.307Z,57.27
2023-02-07T16:55:28.239Z,57.06
2023-02-07T16:56:32.292Z,56.99
2023-02-07T16:57:38.064Z,56.96
2023-02-07T16:58:42.148Z,57.05
2023-02-07T16:59:45.518Z,57.03
2023-02-07T17:00:48.757Z,57.07
2023-02-07T17:01:53.637Z,56.95
2023-02-07T17:02:58.323Z,57.03
2023-02-07T17:04:01.538Z,57.02
2023-02-07T17:05:05.347Z,57.04
2023-02-07T17:06:15.068Z,57.04
2023-02-07T17:07:18.274Z,56.97
2023-02-07T17:08:24.765Z,56.97
2023-02-07T17:09:28.028Z,56.85
2023-02-07T17:10:34.225Z,57.00
2023-02-07T17:11:38.403Z,57.01
2023-02-07T17:12:42.629Z,57.06
2023-02-07T17:13:45.991Z,56.97
2023-02-07T17:14:49.173Z,57.05
2023-02-07T17:15:52.504Z,57.14
2023-02-07T17:16:56.284Z,57.10
2023-02-07T17:17:59.636Z,57.11
2023-02-07T17:19:02.998Z,57.07
2023-02-07T17:20:28.235Z,57.04
2023-02-07T17:21:31.425Z,56.98
2023-02-07T17:22:34.532Z,57.05
2023-02-07T17:23:37.893Z,57.16